sensor_id;sensor_type;location;lat;lon;timestamp;temperature;humidity
64062;DHT22;50308;47.438;-1.528;2023-04-25T00:00:01;12.20;76.40
64062;DHT22;50308;47.438;-1.528;2023-04-25T00:02:27;12.30;76.10
64062;DHT22;50308;47.438;-1.528;2023-04-25T00:04:53;12.20;75.80
64062;DHT22;50308;47.438;-1.528;2023-04-25T00:07:25;12.20;75.50
64062;DHT22;50308;47.438;-1.528;2023-04-25T00:09:51;12.20;75.70
64062;DHT22;50308;47.438;-1.528;2023-04-25T00:12:16;12.10;75.80
64062;DHT22;50308;47.438;-1.528;2023-04-25T00:14:42;12.10;75.90
64062;DHT22;50308;47.438;-1.528;2023-04-25T00:17:08;12.10;75.80
64062;DHT22;50308;47.438;-1.528;2023-04-25T00:19:33;12.10;75.80
64062;DHT22;50308;47.438;-1.528;2023-04-25T00:22:00;12.10;75.50
64062;DHT22;50308;47.438;-1.528;2023-04-25T00:24:26;12.10;75.50
64062;DHT22;50308;47.438;-1.528;2023-04-25T00:26:51;12.00;75.10
64062;DHT22;50308;47.438;-1.528;2023-04-25T00:29:17;12.00;75.40
64062;DHT22;50308;47.438;-1.528;2023-04-25T00:31:42;12.00;75.50
64062;DHT22;50308;47.438;-1.528;2023-04-25T00:34:08;12.00;75.80
64062;DHT22;50308;47.438;-1.528;2023-04-25T00:36:34;12.10;76.00
64062;DHT22;50308;47.438;-1.528;2023-04-25T00:38:59;12.10;76.00
64062;DHT22;50308;47.438;-1.528;2023-04-25T00:41:26;12.00;76.10
64062;DHT22;50308;47.438;-1.528;2023-04-25T00:43:53;12.10;75.80
64062;DHT22;50308;47.438;-1.528;2023-04-25T00:46:19;12.10;75.90
64062;DHT22;50308;47.438;-1.528;2023-04-25T00:48:45;12.00;75.90
64062;DHT22;50308;47.438;-1.528;2023-04-25T00:51:16;12.00;75.90
64062;DHT22;50308;47.438;-1.528;2023-04-25T00:53:42;12.00;76.30
64062;DHT22;50308;47.438;-1.528;2023-04-25T00:56:07;12.10;75.70
64062;DHT22;50308;47.438;-1.528;2023-04-25T00:58:33;12.00;75.60
64062;DHT22;50308;47.438;-1.528;2023-04-25T01:01:00;12.10;75.90
64062;DHT22;50308;47.438;-1.528;2023-04-25T01:03:26;12.10;75.50
64062;DHT22;50308;47.438;-1.528;2023-04-25T01:05:54;12.20;75.40
64062;DHT22;50308;47.438;-1.528;2023-04-25T01:08:23;12.10;75.20
64062;DHT22;50308;47.438;-1.528;2023-04-25T01:10:51;12.00;75.30
64062;DHT22;50308;47.438;-1.528;2023-04-25T01:13:16;12.00;75.40
64062;DHT22;50308;47.438;-1.528;2023-04-25T01:15:42;12.00;75.60
64062;DHT22;50308;47.438;-1.528;2023-04-25T01:18:08;12.00;75.30
64062;DHT22;50308;47.438;-1.528;2023-04-25T01:20:34;11.90;75.90
64062;DHT22;50308;47.438;-1.528;2023-04-25T01:23:00;11.90;75.80
64062;DHT22;50308;47.438;-1.528;2023-04-25T01:25:27;11.80;75.70
64062;DHT22;50308;47.438;-1.528;2023-04-25T01:27:53;11.80;75.90
64062;DHT22;50308;47.438;-1.528;2023-04-25T01:30:19;11.70;76.00
64062;DHT22;50308;47.438;-1.528;2023-04-25T01:32:45;11.80;76.00
64062;DHT22;50308;47.438;-1.528;2023-04-25T01:35:12;11.70;75.90
64062;DHT22;50308;47.438;-1.528;2023-04-25T01:37:42;11.70;76.70
64062;DHT22;50308;47.438;-1.528;2023-04-25T01:40:09;11.70;75.40
64062;DHT22;50308;47.438;-1.528;2023-04-25T01:42:37;11.70;75.50
64062;DHT22;50308;47.438;-1.528;2023-04-25T01:45:03;11.70;75.40
64062;DHT22;50308;47.438;-1.528;2023-04-25T01:47:29;11.70;75.90
64062;DHT22;50308;47.438;-1.528;2023-04-25T01:49:55;11.70;75.50
64062;DHT22;50308;47.438;-1.528;2023-04-25T01:52:21;11.70;75.40
64062;DHT22;50308;47.438;-1.528;2023-04-25T01:54:47;11.70;75.30
64062;DHT22;50308;47.438;-1.528;2023-04-25T01:57:13;11.70;75.00
64062;DHT22;50308;47.438;-1.528;2023-04-25T01:59:39;11.60;75.20
64062;DHT22;50308;47.438;-1.528;2023-04-25T02:02:06;11.60;75.20
64062;DHT22;50308;47.438;-1.528;2023-04-25T02:04:32;11.60;75.50
64062;DHT22;50308;47.438;-1.528;2023-04-25T02:06:58;11.60;76.40
64062;DHT22;50308;47.438;-1.528;2023-04-25T02:09:24;11.60;75.20
64062;DHT22;50308;47.438;-1.528;2023-04-25T02:11:50;11.60;75.10
64062;DHT22;50308;47.438;-1.528;2023-04-25T02:14:15;11.60;75.40
64062;DHT22;50308;47.438;-1.528;2023-04-25T02:16:41;11.60;75.40
64062;DHT22;50308;47.438;-1.528;2023-04-25T02:19:09;11.60;75.40
64062;DHT22;50308;47.438;-1.528;2023-04-25T02:21:35;11.60;75.00
64062;DHT22;50308;47.438;-1.528;2023-04-25T02:24:02;11.60;74.90
64062;DHT22;50308;47.438;-1.528;2023-04-25T02:26:28;11.50;75.00
64062;DHT22;50308;47.438;-1.528;2023-04-25T02:28:53;11.50;75.10
64062;DHT22;50308;47.438;-1.528;2023-04-25T02:31:19;11.50;75.30
64062;DHT22;50308;47.438;-1.528;2023-04-25T02:33:45;11.50;75.20
64062;DHT22;50308;47.438;-1.528;2023-04-25T02:36:10;11.40;74.90
64062;DHT22;50308;47.438;-1.528;2023-04-25T02:38:36;11.40;75.00
64062;DHT22;50308;47.438;-1.528;2023-04-25T02:41:02;11.40;74.90
64062;DHT22;50308;47.438;-1.528;2023-04-25T02:43:27;11.30;74.90
64062;DHT22;50308;47.438;-1.528;2023-04-25T02:45:53;11.30;75.10
64062;DHT22;50308;47.438;-1.528;2023-04-25T02:48:19;11.30;75.10
64062;DHT22;50308;47.438;-1.528;2023-04-25T02:50:45;11.30;75.10
64062;DHT22;50308;47.438;-1.528;2023-04-25T02:53:10;11.20;75.20
64062;DHT22;50308;47.438;-1.528;2023-04-25T02:55:36;11.20;75.20
64062;DHT22;50308;47.438;-1.528;2023-04-25T02:58:02;11.20;75.20
64062;DHT22;50308;47.438;-1.528;2023-04-25T03:00:27;11.20;74.80
64062;DHT22;50308;47.438;-1.528;2023-04-25T03:02:53;11.20;75.00
64062;DHT22;50308;47.438;-1.528;2023-04-25T03:05:19;11.10;75.10
64062;DHT22;50308;47.438;-1.528;2023-04-25T03:07:45;11.10;74.90
64062;DHT22;50308;47.438;-1.528;2023-04-25T03:10:11;11.10;75.00
64062;DHT22;50308;47.438;-1.528;2023-04-25T03:12:37;11.20;76.40
64062;DHT22;50308;47.438;-1.528;2023-04-25T03:15:03;11.20;75.30
64062;DHT22;50308;47.438;-1.528;2023-04-25T03:17:29;11.10;75.30
64062;DHT22;50308;47.438;-1.528;2023-04-25T03:19:55;11.10;75.10
64062;DHT22;50308;47.438;-1.528;2023-04-25T03:22:21;11.10;75.10
64062;DHT22;50308;47.438;-1.528;2023-04-25T03:24:47;11.20;75.10
64062;DHT22;50308;47.438;-1.528;2023-04-25T03:27:13;11.20;75.10
64062;DHT22;50308;47.438;-1.528;2023-04-25T03:29:38;11.20;75.50
64062;DHT22;50308;47.438;-1.528;2023-04-25T03:32:05;11.20;75.60
64062;DHT22;50308;47.438;-1.528;2023-04-25T03:34:31;11.30;75.70
64062;DHT22;50308;47.438;-1.528;2023-04-25T03:36:57;11.30;75.30
64062;DHT22;50308;47.438;-1.528;2023-04-25T03:39:23;11.20;75.00
64062;DHT22;50308;47.438;-1.528;2023-04-25T03:41:48;11.20;75.00
64062;DHT22;50308;47.438;-1.528;2023-04-25T03:44:14;11.10;74.90
64062;DHT22;50308;47.438;-1.528;2023-04-25T03:46:40;11.10;75.10
64062;DHT22;50308;47.438;-1.528;2023-04-25T03:49:05;11.10;75.20
64062;DHT22;50308;47.438;-1.528;2023-04-25T03:51:31;11.10;75.60
64062;DHT22;50308;47.438;-1.528;2023-04-25T03:53:57;11.10;75.10
64062;DHT22;50308;47.438;-1.528;2023-04-25T03:56:23;11.00;75.20
64062;DHT22;50308;47.438;-1.528;2023-04-25T03:58:49;11.00;75.60
64062;DHT22;50308;47.438;-1.528;2023-04-25T04:01:14;11.00;75.60
64062;DHT22;50308;47.438;-1.528;2023-04-25T04:03:40;11.00;75.50
64062;DHT22;50308;47.438;-1.528;2023-04-25T04:06:07;11.00;75.30
64062;DHT22;50308;47.438;-1.528;2023-04-25T04:08:33;11.00;75.20
64062;DHT22;50308;47.438;-1.528;2023-04-25T04:10:59;11.00;75.00
64062;DHT22;50308;47.438;-1.528;2023-04-25T04:13:28;11.00;75.10
64062;DHT22;50308;47.438;-1.528;2023-04-25T04:15:55;11.10;75.10
64062;DHT22;50308;47.438;-1.528;2023-04-25T04:18:21;11.10;75.20
64062;DHT22;50308;47.438;-1.528;2023-04-25T04:20:47;11.10;75.20
64062;DHT22;50308;47.438;-1.528;2023-04-25T04:23:13;11.10;75.10
64062;DHT22;50308;47.438;-1.528;2023-04-25T04:25:39;11.10;75.60
64062;DHT22;50308;47.438;-1.528;2023-04-25T04:28:05;11.10;75.90
64062;DHT22;50308;47.438;-1.528;2023-04-25T04:30:32;11.10;75.90
64062;DHT22;50308;47.438;-1.528;2023-04-25T04:33:01;11.10;75.80
64062;DHT22;50308;47.438;-1.528;2023-04-25T04:35:28;11.10;75.60
64062;DHT22;50308;47.438;-1.528;2023-04-25T04:37:53;11.20;75.50
64062;DHT22;50308;47.438;-1.528;2023-04-25T04:40:20;11.20;75.60
64062;DHT22;50308;47.438;-1.528;2023-04-25T04:42:47;11.10;75.30
64062;DHT22;50308;47.438;-1.528;2023-04-25T04:45:13;11.10;75.50
64062;DHT22;50308;47.438;-1.528;2023-04-25T04:47:39;11.10;75.40
64062;DHT22;50308;47.438;-1.528;2023-04-25T04:50:09;11.10;75.00
64062;DHT22;50308;47.438;-1.528;2023-04-25T04:52:38;11.10;75.00
64062;DHT22;50308;47.438;-1.528;2023-04-25T04:55:04;11.00;75.10
64062;DHT22;50308;47.438;-1.528;2023-04-25T04:57:31;11.00;75.10
64062;DHT22;50308;47.438;-1.528;2023-04-25T04:59:58;11.00;74.90
64062;DHT22;50308;47.438;-1.528;2023-04-25T05:02:24;10.90;75.40
64062;DHT22;50308;47.438;-1.528;2023-04-25T05:04:50;10.90;74.90
64062;DHT22;50308;47.438;-1.528;2023-04-25T05:07:17;10.90;75.30
64062;DHT22;50308;47.438;-1.528;2023-04-25T05:09:43;10.90;75.10
64062;DHT22;50308;47.438;-1.528;2023-04-25T05:12:08;10.90;75.20
64062;DHT22;50308;47.438;-1.528;2023-04-25T05:14:34;10.90;75.20
64062;DHT22;50308;47.438;-1.528;2023-04-25T05:17:00;10.80;75.00
64062;DHT22;50308;47.438;-1.528;2023-04-25T05:19:26;10.80;74.80
64062;DHT22;50308;47.438;-1.528;2023-04-25T05:21:52;10.90;75.10
64062;DHT22;50308;47.438;-1.528;2023-04-25T05:24:17;10.80;75.10
64062;DHT22;50308;47.438;-1.528;2023-04-25T05:26:43;10.80;75.00
64062;DHT22;50308;47.438;-1.528;2023-04-25T05:29:09;10.80;75.00
64062;DHT22;50308;47.438;-1.528;2023-04-25T05:31:36;10.80;75.00
64062;DHT22;50308;47.438;-1.528;2023-04-25T05:34:02;10.90;75.30
64062;DHT22;50308;47.438;-1.528;2023-04-25T05:36:28;10.80;75.20
64062;DHT22;50308;47.438;-1.528;2023-04-25T05:38:53;10.80;75.60
64062;DHT22;50308;47.438;-1.528;2023-04-25T05:41:19;10.90;75.40
64062;DHT22;50308;47.438;-1.528;2023-04-25T05:43:45;10.90;75.30
64062;DHT22;50308;47.438;-1.528;2023-04-25T05:46:14;10.90;75.60
64062;DHT22;50308;47.438;-1.528;2023-04-25T05:48:39;11.00;75.70
64062;DHT22;50308;47.438;-1.528;2023-04-25T05:51:05;10.90;75.70
64062;DHT22;50308;47.438;-1.528;2023-04-25T05:53:31;10.90;75.90
64062;DHT22;50308;47.438;-1.528;2023-04-25T05:55:56;11.00;76.10
64062;DHT22;50308;47.438;-1.528;2023-04-25T05:58:22;11.10;76.20
64062;DHT22;50308;47.438;-1.528;2023-04-25T06:00:48;11.10;76.20
64062;DHT22;50308;47.438;-1.528;2023-04-25T06:03:14;11.10;76.20
64062;DHT22;50308;47.438;-1.528;2023-04-25T06:05:43;11.00;76.40
64062;DHT22;50308;47.438;-1.528;2023-04-25T06:08:09;11.10;76.50
64062;DHT22;50308;47.438;-1.528;2023-04-25T06:10:38;11.20;77.00
64062;DHT22;50308;47.438;-1.528;2023-04-25T06:13:04;11.20;77.10
64062;DHT22;50308;47.438;-1.528;2023-04-25T06:15:31;11.20;77.00
64062;DHT22;50308;47.438;-1.528;2023-04-25T06:17:57;11.30;77.40
64062;DHT22;50308;47.438;-1.528;2023-04-25T06:20:23;11.30;77.60
64062;DHT22;50308;47.438;-1.528;2023-04-25T06:22:50;11.40;77.60
64062;DHT22;50308;47.438;-1.528;2023-04-25T06:25:17;11.40;77.90
64062;DHT22;50308;47.438;-1.528;2023-04-25T06:27:42;11.50;78.00
64062;DHT22;50308;47.438;-1.528;2023-04-25T06:30:09;11.50;78.00
64062;DHT22;50308;47.438;-1.528;2023-04-25T06:32:35;11.60;77.90
64062;DHT22;50308;47.438;-1.528;2023-04-25T06:35:01;11.60;78.20
64062;DHT22;50308;47.438;-1.528;2023-04-25T06:37:26;11.70;78.20
64062;DHT22;50308;47.438;-1.528;2023-04-25T06:39:52;11.60;78.10
64062;DHT22;50308;47.438;-1.528;2023-04-25T06:42:18;11.70;78.20
64062;DHT22;50308;47.438;-1.528;2023-04-25T06:44:43;11.70;78.50
64062;DHT22;50308;47.438;-1.528;2023-04-25T06:47:09;11.70;78.80
64062;DHT22;50308;47.438;-1.528;2023-04-25T06:49:35;11.70;78.90
64062;DHT22;50308;47.438;-1.528;2023-04-25T06:52:01;11.80;78.80
64062;DHT22;50308;47.438;-1.528;2023-04-25T06:54:26;11.90;78.60
64062;DHT22;50308;47.438;-1.528;2023-04-25T06:56:55;12.00;78.60
64062;DHT22;50308;47.438;-1.528;2023-04-25T06:59:21;12.00;78.50
64062;DHT22;50308;47.438;-1.528;2023-04-25T07:01:46;12.00;79.00
64062;DHT22;50308;47.438;-1.528;2023-04-25T07:04:12;12.00;78.80
64062;DHT22;50308;47.438;-1.528;2023-04-25T07:06:38;12.10;79.00
64062;DHT22;50308;47.438;-1.528;2023-04-25T07:09:08;12.10;78.90
64062;DHT22;50308;47.438;-1.528;2023-04-25T07:11:35;12.20;78.90
64062;DHT22;50308;47.438;-1.528;2023-04-25T07:14:01;12.30;79.10
64062;DHT22;50308;47.438;-1.528;2023-04-25T07:16:27;12.30;79.20
64062;DHT22;50308;47.438;-1.528;2023-04-25T07:18:53;12.40;79.20
64062;DHT22;50308;47.438;-1.528;2023-04-25T07:21:19;12.40;79.60
64062;DHT22;50308;47.438;-1.528;2023-04-25T07:23:44;12.40;79.80
64062;DHT22;50308;47.438;-1.528;2023-04-25T07:26:10;12.40;79.90
64062;DHT22;50308;47.438;-1.528;2023-04-25T07:28:36;12.40;79.80
64062;DHT22;50308;47.438;-1.528;2023-04-25T07:31:02;12.40;80.00
64062;DHT22;50308;47.438;-1.528;2023-04-25T07:33:28;12.40;79.60
64062;DHT22;50308;47.438;-1.528;2023-04-25T07:35:54;12.50;79.70
64062;DHT22;50308;47.438;-1.528;2023-04-25T07:38:21;12.50;80.00
64062;DHT22;50308;47.438;-1.528;2023-04-25T07:40:48;12.70;80.20
64062;DHT22;50308;47.438;-1.528;2023-04-25T07:43:14;12.70;80.00
64062;DHT22;50308;47.438;-1.528;2023-04-25T07:45:45;12.70;79.90
64062;DHT22;50308;47.438;-1.528;2023-04-25T07:48:15;12.80;79.90
64062;DHT22;50308;47.438;-1.528;2023-04-25T07:50:41;12.70;79.50
64062;DHT22;50308;47.438;-1.528;2023-04-25T07:53:07;12.70;79.40
64062;DHT22;50308;47.438;-1.528;2023-04-25T07:55:32;12.70;79.40
64062;DHT22;50308;47.438;-1.528;2023-04-25T07:57:58;12.70;79.80
64062;DHT22;50308;47.438;-1.528;2023-04-25T08:00:24;12.80;79.70
64062;DHT22;50308;47.438;-1.528;2023-04-25T08:02:49;12.80;79.50
64062;DHT22;50308;47.438;-1.528;2023-04-25T08:05:16;12.80;79.50
64062;DHT22;50308;47.438;-1.528;2023-04-25T08:07:42;12.80;79.50
64062;DHT22;50308;47.438;-1.528;2023-04-25T08:10:09;12.80;80.00
64062;DHT22;50308;47.438;-1.528;2023-04-25T08:12:34;12.90;80.00
64062;DHT22;50308;47.438;-1.528;2023-04-25T08:15:00;12.80;79.80
64062;DHT22;50308;47.438;-1.528;2023-04-25T08:17:26;12.80;80.10
64062;DHT22;50308;47.438;-1.528;2023-04-25T08:19:52;12.80;80.10
64062;DHT22;50308;47.438;-1.528;2023-04-25T08:22:17;12.90;79.80
64062;DHT22;50308;47.438;-1.528;2023-04-25T08:24:43;13.00;79.70
64062;DHT22;50308;47.438;-1.528;2023-04-25T08:27:09;13.00;79.80
64062;DHT22;50308;47.438;-1.528;2023-04-25T08:29:35;13.00;79.60
64062;DHT22;50308;47.438;-1.528;2023-04-25T08:32:00;13.10;80.00
64062;DHT22;50308;47.438;-1.528;2023-04-25T08:34:26;13.10;79.30
64062;DHT22;50308;47.438;-1.528;2023-04-25T08:36:52;13.10;79.60
64062;DHT22;50308;47.438;-1.528;2023-04-25T08:39:18;13.10;80.40
64062;DHT22;50308;47.438;-1.528;2023-04-25T08:41:44;13.10;79.20
64062;DHT22;50308;47.438;-1.528;2023-04-25T08:44:11;13.10;78.60
64062;DHT22;50308;47.438;-1.528;2023-04-25T08:46:40;13.20;79.20
64062;DHT22;50308;47.438;-1.528;2023-04-25T08:49:07;13.20;78.90
64062;DHT22;50308;47.438;-1.528;2023-04-25T08:51:36;13.30;79.60
64062;DHT22;50308;47.438;-1.528;2023-04-25T08:54:14;13.20;79.50
64062;DHT22;50308;47.438;-1.528;2023-04-25T08:56:47;13.30;79.70
64062;DHT22;50308;47.438;-1.528;2023-04-25T08:59:13;13.40;79.70
64062;DHT22;50308;47.438;-1.528;2023-04-25T09:01:39;13.40;79.20
64062;DHT22;50308;47.438;-1.528;2023-04-25T09:04:05;13.40;79.20
64062;DHT22;50308;47.438;-1.528;2023-04-25T09:06:31;13.40;78.80
64062;DHT22;50308;47.438;-1.528;2023-04-25T09:09:07;13.50;78.60
64062;DHT22;50308;47.438;-1.528;2023-04-25T09:11:35;13.60;78.10
64062;DHT22;50308;47.438;-1.528;2023-04-25T09:14:17;13.60;78.30
64062;DHT22;50308;47.438;-1.528;2023-04-25T09:19:32;13.50;77.80
64062;DHT22;50308;47.438;-1.528;2023-04-25T09:22:02;13.50;77.50
64062;DHT22;50308;47.438;-1.528;2023-04-25T09:24:47;13.60;78.00
64062;DHT22;50308;47.438;-1.528;2023-04-25T09:27:18;13.60;77.20
64062;DHT22;50308;47.438;-1.528;2023-04-25T09:29:44;13.70;77.30
64062;DHT22;50308;47.438;-1.528;2023-04-25T09:32:12;13.70;76.90
64062;DHT22;50308;47.438;-1.528;2023-04-25T09:34:46;13.70;77.30
64062;DHT22;50308;47.438;-1.528;2023-04-25T09:37:20;13.80;76.80
64062;DHT22;50308;47.438;-1.528;2023-04-25T09:39:47;13.70;76.30
64062;DHT22;50308;47.438;-1.528;2023-04-25T09:42:14;13.70;76.20
64062;DHT22;50308;47.438;-1.528;2023-04-25T09:44:45;13.70;76.20
64062;DHT22;50308;47.438;-1.528;2023-04-25T09:47:12;13.70;75.50
64062;DHT22;50308;47.438;-1.528;2023-04-25T09:49:42;13.80;76.20
64062;DHT22;50308;47.438;-1.528;2023-04-25T09:52:10;13.80;76.40
64062;DHT22;50308;47.438;-1.528;2023-04-25T09:54:38;13.80;75.90
64062;DHT22;50308;47.438;-1.528;2023-04-25T09:57:11;13.80;75.40
64062;DHT22;50308;47.438;-1.528;2023-04-25T09:59:39;13.80;75.70
64062;DHT22;50308;47.438;-1.528;2023-04-25T10:02:07;13.90;76.30
64062;DHT22;50308;47.438;-1.528;2023-04-25T10:04:35;13.90;76.30
64062;DHT22;50308;47.438;-1.528;2023-04-25T10:07:03;13.90;75.30
64062;DHT22;50308;47.438;-1.528;2023-04-25T10:09:31;13.90;75.00
64062;DHT22;50308;47.438;-1.528;2023-04-25T10:11:59;13.90;74.90
64062;DHT22;50308;47.438;-1.528;2023-04-25T10:14:26;13.90;74.50
64062;DHT22;50308;47.438;-1.528;2023-04-25T10:16:53;13.90;74.50
64062;DHT22;50308;47.438;-1.528;2023-04-25T10:19:22;13.90;74.50
64062;DHT22;50308;47.438;-1.528;2023-04-25T10:22:13;14.00;74.50
64062;DHT22;50308;47.438;-1.528;2023-04-25T10:24:39;14.00;74.50
64062;DHT22;50308;47.438;-1.528;2023-04-25T10:27:06;14.00;74.30
64062;DHT22;50308;47.438;-1.528;2023-04-25T10:29:32;14.00;74.40
64062;DHT22;50308;47.438;-1.528;2023-04-25T10:31:58;14.00;74.30
64062;DHT22;50308;47.438;-1.528;2023-04-25T10:34:37;14.00;74.40
64062;DHT22;50308;47.438;-1.528;2023-04-25T10:37:04;14.00;74.20
64062;DHT22;50308;47.438;-1.528;2023-04-25T10:39:29;14.00;74.30
64062;DHT22;50308;47.438;-1.528;2023-04-25T10:41:57;14.10;74.30
64062;DHT22;50308;47.438;-1.528;2023-04-25T10:44:26;14.10;74.20
64062;DHT22;50308;47.438;-1.528;2023-04-25T10:46:58;14.00;74.20
64062;DHT22;50308;47.438;-1.528;2023-04-25T10:49:30;14.10;74.30
64062;DHT22;50308;47.438;-1.528;2023-04-25T10:52:12;14.10;74.40
64062;DHT22;50308;47.438;-1.528;2023-04-25T10:54:57;14.10;74.20
64062;DHT22;50308;47.438;-1.528;2023-04-25T10:57:49;14.10;74.40
64062;DHT22;50308;47.438;-1.528;2023-04-25T11:00:23;14.10;74.30
64062;DHT22;50308;47.438;-1.528;2023-04-25T11:02:53;14.10;74.30
64062;DHT22;50308;47.438;-1.528;2023-04-25T11:05:40;14.20;74.40
64062;DHT22;50308;47.438;-1.528;2023-04-25T11:08:11;14.10;74.20
64062;DHT22;50308;47.438;-1.528;2023-04-25T11:10:37;14.20;74.30
64062;DHT22;50308;47.438;-1.528;2023-04-25T11:13:05;14.10;74.20
64062;DHT22;50308;47.438;-1.528;2023-04-25T11:15:31;14.20;74.20
64062;DHT22;50308;47.438;-1.528;2023-04-25T11:17:56;14.10;74.40
64062;DHT22;50308;47.438;-1.528;2023-04-25T11:20:24;14.10;74.30
64062;DHT22;50308;47.438;-1.528;2023-04-25T11:22:51;14.20;74.40
64062;DHT22;50308;47.438;-1.528;2023-04-25T11:25:17;14.20;74.20
64062;DHT22;50308;47.438;-1.528;2023-04-25T11:27:55;14.20;74.10
64062;DHT22;50308;47.438;-1.528;2023-04-25T11:30:23;14.20;74.20
64062;DHT22;50308;47.438;-1.528;2023-04-25T11:32:49;14.20;74.10
64062;DHT22;50308;47.438;-1.528;2023-04-25T11:35:16;14.20;74.40
64062;DHT22;50308;47.438;-1.528;2023-04-25T11:37:43;14.20;74.20
64062;DHT22;50308;47.438;-1.528;2023-04-25T11:40:10;14.20;74.10
64062;DHT22;50308;47.438;-1.528;2023-04-25T11:42:38;14.20;74.00
64062;DHT22;50308;47.438;-1.528;2023-04-25T11:45:04;14.20;74.10
64062;DHT22;50308;47.438;-1.528;2023-04-25T11:47:31;14.20;75.00
64062;DHT22;50308;47.438;-1.528;2023-04-25T11:50:01;14.30;74.10
64062;DHT22;50308;47.438;-1.528;2023-04-25T11:52:45;14.30;74.10
64062;DHT22;50308;47.438;-1.528;2023-04-25T11:55:19;14.20;73.90
64062;DHT22;50308;47.438;-1.528;2023-04-25T11:57:47;14.30;73.70
64062;DHT22;50308;47.438;-1.528;2023-04-25T12:00:21;14.30;73.70
64062;DHT22;50308;47.438;-1.528;2023-04-25T12:02:52;14.30;73.60
64062;DHT22;50308;47.438;-1.528;2023-04-25T12:05:18;14.30;73.70
64062;DHT22;50308;47.438;-1.528;2023-04-25T12:07:45;14.30;73.90
64062;DHT22;50308;47.438;-1.528;2023-04-25T12:10:13;14.30;73.90
64062;DHT22;50308;47.438;-1.528;2023-04-25T12:12:44;14.30;73.80
64062;DHT22;50308;47.438;-1.528;2023-04-25T12:15:18;14.30;73.40
64062;DHT22;50308;47.438;-1.528;2023-04-25T12:17:48;14.30;73.60
64062;DHT22;50308;47.438;-1.528;2023-04-25T12:20:16;14.30;73.60
64062;DHT22;50308;47.438;-1.528;2023-04-25T12:22:46;14.30;73.80
64062;DHT22;50308;47.438;-1.528;2023-04-25T12:25:13;14.30;73.50
64062;DHT22;50308;47.438;-1.528;2023-04-25T12:28:17;14.30;73.70
64062;DHT22;50308;47.438;-1.528;2023-04-25T12:31:00;14.40;73.80
64062;DHT22;50308;47.438;-1.528;2023-04-25T12:33:27;14.30;73.70
64062;DHT22;50308;47.438;-1.528;2023-04-25T12:35:54;14.30;73.80
64062;DHT22;50308;47.438;-1.528;2023-04-25T12:38:27;14.30;73.60
64062;DHT22;50308;47.438;-1.528;2023-04-25T12:40:55;14.40;73.80
64062;DHT22;50308;47.438;-1.528;2023-04-25T12:43:21;14.40;73.60
64062;DHT22;50308;47.438;-1.528;2023-04-25T12:45:48;14.40;73.90
64062;DHT22;50308;47.438;-1.528;2023-04-25T12:48:15;14.40;73.80
64062;DHT22;50308;47.438;-1.528;2023-04-25T12:50:41;14.40;73.80
64062;DHT22;50308;47.438;-1.528;2023-04-25T12:53:06;14.40;73.60
64062;DHT22;50308;47.438;-1.528;2023-04-25T12:55:32;14.40;73.70
64062;DHT22;50308;47.438;-1.528;2023-04-25T12:57:58;14.40;73.70
64062;DHT22;50308;47.438;-1.528;2023-04-25T13:00:24;14.40;73.60
64062;DHT22;50308;47.438;-1.528;2023-04-25T13:02:50;14.40;73.70
64062;DHT22;50308;47.438;-1.528;2023-04-25T13:05:15;14.40;73.70
64062;DHT22;50308;47.438;-1.528;2023-04-25T13:07:41;14.40;73.70
64062;DHT22;50308;47.438;-1.528;2023-04-25T13:10:07;14.40;73.70
64062;DHT22;50308;47.438;-1.528;2023-04-25T13:12:33;14.40;73.80
64062;DHT22;50308;47.438;-1.528;2023-04-25T13:14:59;14.40;73.80
64062;DHT22;50308;47.438;-1.528;2023-04-25T13:17:24;14.40;73.90
64062;DHT22;50308;47.438;-1.528;2023-04-25T13:19:50;14.40;73.70
64062;DHT22;50308;47.438;-1.528;2023-04-25T13:22:16;14.50;73.90
64062;DHT22;50308;47.438;-1.528;2023-04-25T13:24:44;14.40;73.90
64062;DHT22;50308;47.438;-1.528;2023-04-25T13:27:10;14.40;73.70
64062;DHT22;50308;47.438;-1.528;2023-04-25T13:29:35;14.50;73.70
64062;DHT22;50308;47.438;-1.528;2023-04-25T13:32:03;14.50;73.80
64062;DHT22;50308;47.438;-1.528;2023-04-25T13:34:29;14.50;73.80
64062;DHT22;50308;47.438;-1.528;2023-04-25T13:36:56;14.50;73.70
64062;DHT22;50308;47.438;-1.528;2023-04-25T13:39:21;14.50;73.80
64062;DHT22;50308;47.438;-1.528;2023-04-25T13:41:47;14.50;73.70
64062;DHT22;50308;47.438;-1.528;2023-04-25T13:44:12;14.50;73.70
64062;DHT22;50308;47.438;-1.528;2023-04-25T13:46:38;14.50;73.70
64062;DHT22;50308;47.438;-1.528;2023-04-25T13:49:04;14.50;73.70
64062;DHT22;50308;47.438;-1.528;2023-04-25T13:51:30;14.50;73.90
64062;DHT22;50308;47.438;-1.528;2023-04-25T13:53:57;14.50;73.90
64062;DHT22;50308;47.438;-1.528;2023-04-25T13:56:23;14.50;74.00
64062;DHT22;50308;47.438;-1.528;2023-04-25T13:58:50;14.50;74.00
64062;DHT22;50308;47.438;-1.528;2023-04-25T14:01:17;14.50;73.80
64062;DHT22;50308;47.438;-1.528;2023-04-25T14:03:43;14.50;73.80
64062;DHT22;50308;47.438;-1.528;2023-04-25T14:06:08;14.50;73.80
64062;DHT22;50308;47.438;-1.528;2023-04-25T14:08:34;14.50;73.70
64062;DHT22;50308;47.438;-1.528;2023-04-25T14:11:00;14.60;73.90
64062;DHT22;50308;47.438;-1.528;2023-04-25T14:13:26;14.60;73.90
64062;DHT22;50308;47.438;-1.528;2023-04-25T14:15:52;14.50;73.70
64062;DHT22;50308;47.438;-1.528;2023-04-25T14:18:18;14.50;73.70
64062;DHT22;50308;47.438;-1.528;2023-04-25T14:20:45;14.60;73.60
64062;DHT22;50308;47.438;-1.528;2023-04-25T14:23:10;14.60;73.80
64062;DHT22;50308;47.438;-1.528;2023-04-25T14:25:36;14.60;73.90
64062;DHT22;50308;47.438;-1.528;2023-04-25T14:28:02;14.60;73.70
64062;DHT22;50308;47.438;-1.528;2023-04-25T14:30:28;14.60;73.70
64062;DHT22;50308;47.438;-1.528;2023-04-25T14:32:54;14.60;73.80
64062;DHT22;50308;47.438;-1.528;2023-04-25T14:35:20;14.60;73.90
64062;DHT22;50308;47.438;-1.528;2023-04-25T14:37:46;14.60;73.90
64062;DHT22;50308;47.438;-1.528;2023-04-25T14:40:12;14.60;73.90
64062;DHT22;50308;47.438;-1.528;2023-04-25T14:42:40;14.60;73.80
64062;DHT22;50308;47.438;-1.528;2023-04-25T14:45:07;14.60;73.60
64062;DHT22;50308;47.438;-1.528;2023-04-25T14:47:34;14.60;73.90
64062;DHT22;50308;47.438;-1.528;2023-04-25T14:50:01;14.60;73.80
64062;DHT22;50308;47.438;-1.528;2023-04-25T14:52:27;14.60;73.90
64062;DHT22;50308;47.438;-1.528;2023-04-25T14:54:53;14.60;73.80
64062;DHT22;50308;47.438;-1.528;2023-04-25T14:57:18;14.60;73.90
64062;DHT22;50308;47.438;-1.528;2023-04-25T14:59:44;14.60;73.90
64062;DHT22;50308;47.438;-1.528;2023-04-25T15:02:11;14.60;73.60
64062;DHT22;50308;47.438;-1.528;2023-04-25T15:04:36;14.60;73.70
64062;DHT22;50308;47.438;-1.528;2023-04-25T15:07:02;14.60;73.80
64062;DHT22;50308;47.438;-1.528;2023-04-25T15:09:29;14.60;73.70
64062;DHT22;50308;47.438;-1.528;2023-04-25T15:11:55;14.60;73.70
64062;DHT22;50308;47.438;-1.528;2023-04-25T15:14:21;14.60;73.60
64062;DHT22;50308;47.438;-1.528;2023-04-25T15:16:46;14.60;73.70